Time;durP1;ratioP1;P1;durP2;ratioP2;P2;SDS_P1;SDS_P2;PMS_P1;PMS_P2;Temp;Humidity;BMP_temperature;BMP_pressure;BME280_temperature;BME280_humidity;BME280_pressure;Samples;Min_cycle;Max_cycle;Signal;HPM_P1;HPM_P2
2022/11/20 00:00:23;;;;;;;13.23;9.97;;;;;;;-2.12;100.00;101177.50;4951323;28;20387;-63
2022/11/20 00:02:48;;;;;;;13.50;9.83;;;;;;;-2.14;100.00;101180.69;4950863;28;20027;-62
2022/11/20 00:05:14;;;;;;;14.80;10.87;;;;;;;-2.17;100.00;101174.56;4950757;28;20577;-62
2022/11/20 00:07:39;;;;;;;13.50;10.20;;;;;;;-2.18;100.00;101175.31;4950843;28;20027;-62
2022/11/20 00:10:05;;;;;;;12.20;10.17;;;;;;;-2.23;100.00;101179.09;4950134;28;20479;-62
2022/11/20 00:12:31;;;;;;;14.37;11.67;;;;;;;-2.24;100.00;101181.50;4963936;28;20033;-63
2022/11/20 00:14:56;;;;;;;12.57;10.67;;;;;;;-2.30;100.00;101174.22;4983885;28;20086;-63
2022/11/20 00:17:21;;;;;;;12.00;10.00;;;;;;;-2.34;100.00;101174.72;4962367;28;20039;-62
2022/11/20 00:19:47;;;;;;;14.13;10.67;;;;;;;-2.41;100.00;101179.22;4964764;28;20438;-63
2022/11/20 00:22:12;;;;;;;14.30;10.97;;;;;;;-2.47;100.00;101177.78;4950402;28;20027;-62
2022/11/20 00:24:37;;;;;;;12.67;10.27;;;;;;;-2.49;100.00;101169.13;4949834;28;20471;-63
2022/11/20 00:27:02;;;;;;;12.10;10.17;;;;;;;-2.53;100.00;101170.50;4950297;28;20059;-62
2022/11/20 00:29:28;;;;;;;12.97;10.57;;;;;;;-2.54;100.00;101177.22;4960659;28;20651;-63
2022/11/20 00:31:53;;;;;;;17.37;10.83;;;;;;;-2.55;100.00;101190.66;4964219;28;20034;-62
2022/11/20 00:34:18;;;;;;;14.97;10.73;;;;;;;-2.50;100.00;101183.47;4959985;28;20526;-63
2022/11/20 00:36:44;;;;;;;14.40;10.60;;;;;;;-2.51;100.00;101175.72;4975699;28;20027;-63
2022/11/20 00:39:09;;;;;;;14.17;10.50;;;;;;;-2.53;100.00;101178.13;4950055;28;20031;-63
2022/11/20 00:41:34;;;;;;;13.17;10.20;;;;;;;-2.58;100.00;101176.81;4950094;28;20031;-63
2022/11/20 00:43:59;;;;;;;14.00;10.30;;;;;;;-2.63;100.00;101171.34;4949532;28;20020;-63
2022/11/20 00:46:27;;;;;;;12.53;10.20;;;;;;;-2.67;100.00;101174.34;4949242;28;20439;-62
2022/11/20 00:48:52;;;;;;;13.33;10.50;;;;;;;-2.73;100.00;101173.75;4973661;28;20035;-63
2022/11/20 00:51:20;;;;;;;13.53;10.73;;;;;;;-2.75;100.00;101173.63;4950001;28;20471;-63
2022/11/20 00:53:46;;;;;;;13.37;10.90;;;;;;;-2.77;100.00;101175.16;4951413;28;20027;-63
2022/11/20 00:56:14;;;;;;;14.07;10.83;;;;;;;-2.79;100.00;101174.13;4970330;28;20032;-63
2022/11/20 00:58:42;;;;;;;15.13;11.53;;;;;;;-2.86;100.00;101169.22;4949877;28;20077;-63
2022/11/20 01:01:23;;;;;;;15.57;11.63;;;;;;;-2.86;100.00;101171.78;4949488;28;20027;-63
2022/11/20 01:03:50;;;;;;;12.67;10.40;;;;;;;-2.86;100.00;101172.63;4949396;28;20066;-63
2022/11/20 01:06:24;;;;;;;17.83;12.47;;;;;;;-2.87;100.00;101170.88;4949456;28;20042;-63
2022/11/20 01:08:53;;;;;;;15.80;12.27;;;;;;;-2.91;100.00;101164.63;4949710;28;20030;-63
2022/11/20 01:11:21;;;;;;;13.57;10.70;;;;;;;-2.91;100.00;101163.72;4950443;28;20074;-63
2022/11/20 01:13:48;;;;;;;15.47;11.60;;;;;;;-2.90;100.00;101168.94;4950013;28;20375;-63
2022/11/20 01:16:19;;;;;;;14.33;11.00;;;;;;;-2.91;100.00;101163.72;4948971;28;20046;-63
2022/11/20 01:18:47;;;;;;;14.00;11.00;;;;;;;-2.91;100.00;101173.88;4949783;28;20030;-63
2022/11/20 01:21:19;;;;;;;15.43;12.17;;;;;;;-2.93;100.00;101171.19;4951288;28;20106;-63
2022/11/20 01:23:45;;;;;;;15.67;11.03;;;;;;;-2.92;100.00;101170.47;4950144;28;20031;-63
2022/11/20 01:26:14;;;;;;;14.17;11.57;;;;;;;-2.91;100.00;101169.69;4949768;28;20023;-63
2022/11/20 01:28:40;;;;;;;13.90;10.83;;;;;;;-2.91;100.00;101168.78;4959991;28;20479;-63
2022/11/20 01:31:13;;;;;;;13.33;10.93;;;;;;;-2.93;100.00;101168.66;4952125;28;20085;-63
2022/11/20 01:33:40;;;;;;;12.87;10.47;;;;;;;-2.96;100.00;101165.84;4958815;28;20461;-63
2022/11/20 01:36:06;;;;;;;14.57;11.13;;;;;;;-2.99;100.00;101164.66;4964825;28;20425;-63
2022/11/20 01:38:32;;;;;;;14.63;11.37;;;;;;;-3.03;100.00;101164.41;4957157;28;20023;-63
2022/11/20 01:40:57;;;;;;;14.30;10.97;;;;;;;-3.02;100.00;101160.19;4960504;28;20028;-63
2022/11/20 01:43:24;;;;;;;13.03;10.30;;;;;;;-3.06;100.00;101160.69;4955693;28;20113;-64
2022/11/20 01:46:17;;;;;;;14.60;11.53;;;;;;;-3.08;100.00;101168.16;4948577;28;20034;-63
2022/11/20 01:49:01;;;;;;;13.97;10.63;;;;;;;-3.15;100.00;101163.25;4954025;28;20098;-64
2022/11/20 01:51:34;;;;;;;13.30;9.93;;;;;;;-3.19;100.00;101169.69;4950888;28;20429;-63
2022/11/20 01:54:05;;;;;;;13.77;11.10;;;;;;;-3.24;100.00;101163.31;4965828;28;20078;-63
2022/11/20 01:56:33;;;;;;;15.83;11.20;;;;;;;-3.24;100.00;101158.22;4948802;28;20036;-64
2022/11/20 01:59:01;;;;;;;15.10;11.30;;;;;;;-3.25;100.00;101151.34;4957651;28;20031;-64
2022/11/20 02:01:26;;;;;;;13.60;10.57;;;;;;;-3.22;100.00;101159.25;4949126;28;20503;-64
2022/11/20 02:03:52;;;;;;;14.73;11.37;;;;;;;-3.19;100.00;101169.69;4951835;28;20023;-64
2022/11/20 02:06:31;;;;;;;13.77;10.90;;;;;;;-3.15;100.00;101166.66;4959083;28;20023;-64
2022/11/20 02:08:56;;;;;;;13.47;10.70;;;;;;;-3.16;100.00;101159.81;4950431;28;20031;-64
2022/11/20 02:11:22;;;;;;;13.93;11.33;;;;;;;-3.23;100.00;101149.88;4951043;28;20399;-64
2022/11/20 02:13:48;;;;;;;13.43;10.97;;;;;;;-3.28;100.00;101156.16;4952402;28;20030;-63
2022/11/20 02:16:19;;;;;;;14.87;11.30;;;;;;;-3.31;100.00;101150.81;4953071;28;20019;-64
2022/11/20 02:18:46;;;;;;;17.23;12.27;;;;;;;-3.30;100.00;101162.72;4952838;28;20035;-64
2022/11/20 02:21:40;;;;;;;16.57;11.93;;;;;;;-3.26;100.00;101164.78;4952320;28;20561;-63
2022/11/20 02:24:16;;;;;;;15.63;11.67;;;;;;;-3.28;100.00;101146.91;4958729;28;20027;-64
2022/11/20 02:26:51;;;;;;;16.27;11.67;;;;;;;-3.30;100.00;101143.34;4953944;28;20027;-63
2022/11/20 02:29:23;;;;;;;15.57;11.17;;;;;;;-3.28;100.00;101148.53;4953115;28;20027;-64
2022/11/20 02:31:48;;;;;;;15.13;11.57;;;;;;;-3.31;100.00;101148.28;4952473;28;20034;-63
2022/11/20 02:34:13;;;;;;;17.57;11.73;;;;;;;-3.34;100.00;101146.31;4952523;28;20499;-63
2022/11/20 02:36:41;;;;;;;14.30;10.40;;;;;;;-3.30;100.00;101147.50;4951904;28;20051;-63
2022/11/20 02:39:08;;;;;;;14.30;11.27;;;;;;;-3.29;100.00;101145.09;4952405;28;20023;-63
2022/11/20 02:41:36;;;;;;;15.63;12.37;;;;;;;-3.24;100.00;101140.47;4952637;28;20081;-63
2022/11/20 02:44:02;;;;;;;15.63;12.23;;;;;;;-3.23;100.00;101137.19;4952618;28;20365;-63
2022/11/20 02:46:27;;;;;;;15.73;11.47;;;;;;;-3.22;100.00;101136.41;4952244;28;20497;-63
2022/11/20 02:48:52;;;;;;;15.63;11.73;;;;;;;-3.18;100.00;101132.53;4952358;28;20027;-63
2022/11/20 02:51:18;;;;;;;17.33;13.23;;;;;;;-3.13;100.00;101132.19;4952499;28;20019;-62
2022/11/20 02:53:43;;;;;;;15.93;12.83;;;;;;;-3.06;100.00;101136.19;4952625;28;20023;-63
2022/11/20 02:56:08;;;;;;;15.77;11.67;;;;;;;-3.05;100.00;101134.56;4951834;28;20030;-63
2022/11/20 02:58:34;;;;;;;14.57;11.87;;;;;;;-2.99;100.00;101140.22;4954827;28;20055;-62
2022/11/20 03:00:59;;;;;;;13.83;10.43;;;;;;;-2.97;100.00;101143.78;4965413;28;20023;-63
2022/11/20 03:03:25;;;;;;;17.27;11.97;;;;;;;-2.93;100.00;101140.75;4964687;28;20058;-63
2022/11/20 03:05:50;;;;;;;15.53;11.73;;;;;;;-2.96;100.00;101140.47;4964385;28;20351;-63
2022/11/20 03:08:15;;;;;;;17.60;12.30;;;;;;;-2.94;100.00;101138.06;4970146;28;20015;-62
2022/11/20 03:10:40;;;;;;;16.40;12.10;;;;;;;-2.93;100.00;101135.69;4959598;28;20086;-62
2022/11/20 03:13:06;;;;;;;14.60;11.53;;;;;;;-2.95;100.00;101142.25;4956497;28;20082;-63
2022/11/20 03:15:31;;;;;;;15.17;11.93;;;;;;;-2.98;100.00;101134.38;4959465;28;20479;-63
2022/11/20 03:17:56;;;;;;;14.50;11.60;;;;;;;-3.04;100.00;101138.91;4953608;28;20034;-63
2022/11/20 03:20:22;;;;;;;15.00;11.03;;;;;;;-3.07;100.00;101139.50;4950933;28;20049;-63
2022/11/20 03:22:48;;;;;;;15.53;11.93;;;;;;;-3.07;100.00;101136.06;4950911;28;20565;-63
2022/11/20 03:25:13;;;;;;;14.17;12.20;;;;;;;-3.10;100.00;101136.69;4951319;28;20179;-63
2022/11/20 03:27:38;;;;;;;15.77;12.47;;;;;;;-3.11;100.00;101139.09;4950932;28;20046;-63
2022/11/20 03:30:05;;;;;;;17.43;12.70;;;;;;;-3.16;100.00;101136.09;4951427;28;20059;-63
2022/11/20 03:32:31;;;;;;;16.53;12.50;;;;;;;-3.17;100.00;101132.69;4951603;28;20415;-63
2022/11/20 03:34:56;;;;;;;14.57;11.70;;;;;;;-3.19;100.00;101124.03;4952062;28;20114;-63
2022/11/20 03:37:21;;;;;;;17.40;12.97;;;;;;;-3.21;100.00;101128.09;4951586;28;20387;-62
2022/11/20 03:39:47;;;;;;;17.77;12.63;;;;;;;-3.19;100.00;101121.50;4951559;28;20027;-63
2022/11/20 03:44:56;;;;;;;18.83;14.13;;;;;;;-3.15;100.00;101113.41;4951532;28;20077;-63
2022/11/20 03:47:21;;;;;;;15.27;12.47;;;;;;;-3.14;100.00;101105.06;4951012;28;20518;-63
2022/11/20 03:49:47;;;;;;;17.60;12.93;;;;;;;-3.13;100.00;101100.91;4950177;28;20023;-62
2022/11/20 03:52:12;;;;;;;14.67;11.70;;;;;;;-3.11;100.00;101103.56;4951025;28;20114;-63
2022/11/20 03:54:37;;;;;;;17.20;12.33;;;;;;;-3.13;100.00;101100.91;4961976;28;20030;-63
2022/11/20 03:57:02;;;;;;;17.23;12.60;;;;;;;-3.17;100.00;101099.72;4953003;28;20034;-62
2022/11/20 03:59:28;;;;;;;16.73;12.83;;;;;;;-3.22;100.00;101090.78;4952913;28;20027;-63
2022/11/20 04:01:53;;;;;;;15.50;12.70;;;;;;;-3.26;100.00;101099.75;4950350;28;20442;-62
2022/11/20 04:04:18;;;;;;;17.47;12.07;;;;;;;-3.28;100.00;101090.22;4951029;28;20384;-63
2022/11/20 04:06:44;;;;;;;15.93;12.90;;;;;;;-3.28;100.00;101088.59;4965349;28;20024;-62
2022/11/20 04:09:09;;;;;;;16.40;12.33;;;;;;;-3.30;100.00;101082.50;4950931;28;20479;-62
2022/11/20 04:11:39;;;;;;;15.03;11.40;;;;;;;-3.29;100.00;101079.19;4950506;28;20031;-62
2022/11/20 04:14:06;;;;;;;18.37;13.30;;;;;;;-3.28;100.00;101083.53;4950997;28;20031;-63
2022/11/20 04:16:34;;;;;;;17.47;12.07;;;;;;;-3.27;100.00;101079.31;4950537;28;20082;-62
2022/11/20 04:19:01;;;;;;;15.97;11.80;;;;;;;-3.26;100.00;101091.28;4950727;28;20027;-62
2022/11/20 04:21:26;;;;;;;17.37;12.80;;;;;;;-3.23;100.00;101085.56;4950432;28;20132;-62
2022/11/20 04:23:53;;;;;;;16.03;12.00;;;;;;;-3.28;100.00;101090.22;4951282;28;20048;-62
2022/11/20 04:26:19;;;;;;;16.60;12.80;;;;;;;-3.30;100.00;101097.69;4950495;28;20031;-63
2022/11/20 04:28:44;;;;;;;15.07;11.83;;;;;;;-3.28;100.00;101095.31;4951333;28;20167;-63
2022/11/20 04:31:22;;;;;;;16.60;12.90;;;;;;;-3.27;100.00;101090.38;4950408;28;20033;-63
2022/11/20 04:33:48;;;;;;;20.37;13.30;;;;;;;-3.25;100.00;101085.44;4949310;28;20470;-62
2022/11/20 04:36:19;;;;;;;16.23;12.97;;;;;;;-3.30;100.00;101081.59;4949562;28;20015;-63
2022/11/20 04:38:45;;;;;;;14.30;11.38;;;;;;;-3.34;100.00;101079.50;4950020;28;20031;-62
2022/11/20 04:41:17;;;;;;;15.87;12.60;;;;;;;-3.37;100.00;101082.69;4953107;28;20042;-63
2022/11/20 04:43:47;;;;;;;17.47;12.97;;;;;;;-3.41;100.00;101078.97;4950368;28;20046;-63
2022/11/20 04:46:12;;;;;;;16.83;11.80;;;;;;;-3.42;100.00;101084.75;4950957;28;20122;-63
2022/11/20 04:48:37;;;;;;;19.00;12.87;;;;;;;-3.41;100.00;101089.09;4956642;28;20554;-63
2022/11/20 04:51:04;;;;;;;18.47;13.43;;;;;;;-3.44;100.00;101075.25;4976567;28;20022;-63
2022/11/20 04:53:29;;;;;;;16.90;13.20;;;;;;;-3.45;100.00;101081.94;4949687;28;20091;-63
2022/11/20 04:56:02;;;;;;;17.13;12.13;;;;;;;-3.50;100.00;101070.50;4949623;28;20031;-62
2022/11/20 04:58:28;;;;;;;18.00;13.07;;;;;;;-3.55;100.00;101070.09;4949439;28;20028;-62
2022/11/20 05:00:53;;;;;;;15.90;11.63;;;;;;;-3.53;100.00;101066.06;4949532;28;20027;-62
2022/11/20 05:03:19;;;;;;;16.63;12.87;;;;;;;-3.50;100.00;101062.91;4950303;28;20019;-63
2022/11/20 05:05:44;;;;;;;15.20;12.17;;;;;;;-3.48;100.00;101066.47;4949049;28;20027;-62
2022/11/20 05:08:09;;;;;;;16.10;12.20;;;;;;;-3.50;100.00;101073.03;4949049;28;20029;-63
2022/11/20 05:10:35;;;;;;;17.17;12.63;;;;;;;-3.51;100.00;101066.19;4949343;28;20031;-63
2022/11/20 05:13:00;;;;;;;16.60;11.87;;;;;;;-3.56;100.00;101058.16;4950471;28;20011;-62
2022/11/20 05:15:25;;;;;;;15.17;11.47;;;;;;;-3.57;100.00;101061.44;4950516;28;20090;-62
2022/11/20 05:17:51;;;;;;;16.37;13.03;;;;;;;-3.57;100.00;101053.84;4949545;28;20107;-63
2022/11/20 05:20:18;;;;;;;16.43;12.67;;;;;;;-3.55;100.00;101053.97;4949326;28;20570;-62
2022/11/20 05:22:43;;;;;;;18.07;12.87;;;;;;;-3.55;100.00;101051.44;4948863;28;20557;-63
2022/11/20 05:25:09;;;;;;;17.13;12.40;;;;;;;-3.53;100.00;101053.38;4951088;28;20050;-63
2022/11/20 05:27:34;;;;;;;17.03;13.27;;;;;;;-3.52;100.00;101049.19;4973093;28;20021;-62
2022/11/20 05:29:59;;;;;;;17.53;13.27;;;;;;;-3.52;100.00;101049.19;4949950;28;20038;-62
2022/11/20 05:32:25;;;;;;;18.87;13.47;;;;;;;-3.51;100.00;101048.47;4949836;28;20042;-62
2022/11/20 05:34:51;;;;;;;16.60;13.60;;;;;;;-3.48;100.00;101051.25;4949722;28;20042;-63
2022/11/20 05:37:16;;;;;;;17.60;13.43;;;;;;;-3.45;100.00;101049.00;4949362;28;20263;-63
2022/11/20 05:39:41;;;;;;;19.63;13.50;;;;;;;-3.44;100.00;101048.28;4948974;28;20023;-62
2022/11/20 05:44:50;;;;;;;22.13;13.10;;;;;;;-3.39;100.00;101036.91;4949269;28;20046;-63
2022/11/20 05:47:16;;;;;;;17.77;13.40;;;;;;;-3.35;100.00;101047.31;4948410;28;20051;-63
2022/11/20 05:49:41;;;;;;;19.33;12.90;;;;;;;-3.32;100.00;101052.66;4948955;28;20034;-63
2022/11/20 05:52:06;;;;;;;21.47;14.40;;;;;;;-3.26;100.00;101055.78;4948599;28;20035;-63
2022/11/20 05:54:32;;;;;;;18.63;13.57;;;;;;;-3.23;100.00;101053.50;4949868;28;20372;-62
2022/11/20 05:56:57;;;;;;;19.53;14.10;;;;;;;-3.23;100.00;101061.13;4948801;28;20039;-63
2022/11/20 05:59:22;;;;;;;18.93;14.47;;;;;;;-3.20;100.00;101070.66;4963767;28;20059;-63
2022/11/20 06:01:47;;;;;;;20.43;13.17;;;;;;;-3.17;100.00;101074.38;4949492;28;20560;-63
2022/11/20 06:04:13;;;;;;;18.40;14.17;;;;;;;-3.15;100.00;101072.84;4948848;28;20058;-63
2022/11/20 06:06:38;;;;;;;17.67;13.03;;;;;;;-3.10;100.00;101075.81;4948762;28;20236;-62
2022/11/20 06:09:03;;;;;;;18.93;13.73;;;;;;;-3.09;100.00;101071.63;4948859;28;20064;-63
2022/11/20 06:11:29;;;;;;;19.53;14.57;;;;;;;-3.06;100.00;101077.84;4949450;28;20464;-62
2022/11/20 06:13:54;;;;;;;16.97;13.30;;;;;;;-3.00;100.00;101079.19;4948973;28;20124;-62
2022/11/20 06:16:20;;;;;;;18.33;13.70;;;;;;;-2.99;100.00;101069.19;4949189;28;20031;-62
2022/11/20 06:18:46;;;;;;;18.27;12.83;;;;;;;-2.96;100.00;101079.59;4949499;28;20042;-63
2022/11/20 06:21:14;;;;;;;16.23;13.20;;;;;;;-2.91;100.00;101078.38;4949042;28;20114;-62
2022/11/20 06:23:39;;;;;;;17.17;13.47;;;;;;;-2.91;100.00;101075.84;4949067;28;20384;-62
2022/11/20 06:26:07;;;;;;;16.13;13.70;;;;;;;-2.92;100.00;101076.59;4958051;28;20027;-63
2022/11/20 06:28:33;;;;;;;17.30;13.90;;;;;;;-2.92;100.00;101084.22;4951300;28;20190;-62
2022/11/20 06:30:59;;;;;;;17.63;13.93;;;;;;;-2.94;100.00;101074.66;4948923;28;20035;-62
2022/11/20 06:33:24;;;;;;;19.03;13.90;;;;;;;-3.01;100.00;101075.75;4949443;28;20027;-63
2022/11/20 06:35:51;;;;;;;21.20;14.93;;;;;;;-3.00;100.00;101082.59;4948609;28;20031;-63
2022/11/20 06:38:16;;;;;;;19.23;14.30;;;;;;;-2.98;100.00;101070.06;4948958;28;20046;-63
2022/11/20 06:40:42;;;;;;;18.67;13.80;;;;;;;-2.94;100.00;101070.50;4948435;28;20034;-62
2022/11/20 06:43:08;;;;;;;17.90;13.33;;;;;;;-2.91;100.00;101067.31;4948963;28;20031;-62
2022/11/20 06:45:34;;;;;;;18.43;13.73;;;;;;;-2.90;100.00;101064.91;4949006;28;20507;-63
2022/11/20 06:47:59;;;;;;;18.20;13.93;;;;;;;-2.87;100.00;101065.94;4947864;28;20135;-62
2022/11/20 06:50:24;;;;;;;23.43;15.13;;;;;;;-2.84;100.00;101059.50;4948842;28;20110;-63
2022/11/20 06:52:49;;;;;;;20.13;15.13;;;;;;;-2.82;100.00;101057.09;4948033;28;20027;-63
2022/11/20 06:55:15;;;;;;;20.30;14.90;;;;;;;-2.81;100.00;101051.28;4947577;28;20039;-62
2022/11/20 06:57:40;;;;;;;19.60;14.90;;;;;;;-2.83;100.00;101055.34;4947044;28;20020;-63
2022/11/20 07:00:06;;;;;;;18.60;14.40;;;;;;;-2.85;100.00;101051.75;4951404;28;20033;-63
2022/11/20 07:02:31;;;;;;;22.23;15.10;;;;;;;-2.83;100.00;101050.25;4950235;28;20027;-63
2022/11/20 07:04:56;;;;;;;21.10;14.20;;;;;;;-2.79;100.00;101052.34;4949948;28;20494;-63
2022/11/20 07:07:22;;;;;;;19.13;13.57;;;;;;;-2.79;100.00;101053.19;4961732;28;20372;-63
2022/11/20 07:09:47;;;;;;;19.50;14.90;;;;;;;-2.75;100.00;101058.56;4949763;28;20035;-63
2022/11/20 07:12:12;;;;;;;19.23;13.80;;;;;;;-2.74;100.00;101058.69;4951242;28;20634;-63
2022/11/20 07:14:37;;;;;;;20.10;15.00;;;;;;;-2.74;100.00;101057.81;4952163;28;20031;-62
2022/11/20 07:17:03;;;;;;;17.40;13.87;;;;;;;-2.71;100.00;101051.34;4951443;28;20031;-62
2022/11/20 07:19:28;;;;;;;19.00;14.13;;;;;;;-2.68;100.00;101051.63;4959645;28;20247;-62
2022/11/20 07:21:53;;;;;;;17.83;13.97;;;;;;;-2.64;100.00;101047.72;4955964;28;20073;-63
2022/11/20 07:24:19;;;;;;;19.70;14.63;;;;;;;-2.60;100.00;101048.88;4951757;28;20023;-62
2022/11/20 07:26:47;;;;;;;20.43;15.30;;;;;;;-2.58;100.00;101044.84;4951140;28;20031;-62
2022/11/20 07:29:12;;;;;;;22.80;15.83;;;;;;;-2.56;100.00;101041.69;4951337;28;20027;-63
2022/11/20 07:31:38;;;;;;;19.20;15.50;;;;;;;-2.55;100.00;101037.47;4951984;28;21039;-62
2022/11/20 07:34:03;;;;;;;22.57;15.80;;;;;;;-2.51;100.00;101037.00;4951544;28;20081;-63
2022/11/20 07:36:28;;;;;;;24.13;16.33;;;;;;;-2.48;100.00;101033.84;4964640;28;20101;-63
2022/11/20 07:38:54;;;;;;;20.40;14.87;;;;;;;-2.43;100.00;101043.63;4970239;28;20022;-62
2022/11/20 07:41:19;;;;;;;21.80;15.93;;;;;;;-2.38;100.00;101040.63;4951520;28;20078;-62
2022/11/20 07:43:44;;;;;;;19.87;15.07;;;;;;;-2.36;100.00;101034.03;4950749;28;20039;-62
2022/11/20 07:46:10;;;;;;;23.07;14.63;;;;;;;-2.34;100.00;101032.53;4950965;28;20035;-62
2022/11/20 07:48:35;;;;;;;18.60;14.60;;;;;;;-2.33;100.00;101032.66;4951368;28;20460;-62
2022/11/20 07:51:00;;;;;;;19.13;15.13;;;;;;;-2.31;100.00;101033.69;4951082;28;20027;-62
2022/11/20 07:53:26;;;;;;;18.63;13.77;;;;;;;-2.28;100.00;101038.13;4951125;28;20159;-63
2022/11/20 07:55:54;;;;;;;18.50;14.57;;;;;;;-2.23;100.00;101041.94;4951781;28;20065;-62
2022/11/20 07:58:20;;;;;;;20.63;14.77;;;;;;;-2.23;100.00;101041.94;4963793;28;20051;-63
2022/11/20 08:00:45;;;;;;;16.73;13.83;;;;;;;-2.20;100.00;101037.16;4950400;28;20118;-63
2022/11/20 08:03:11;;;;;;;19.37;14.70;;;;;;;-2.15;100.00;101040.09;4954580;28;20063;-63
2022/11/20 08:05:37;;;;;;;17.87;14.90;;;;;;;-2.10;100.00;101046.44;4955175;28;20031;-62
2022/11/20 08:08:02;;;;;;;18.10;14.13;;;;;;;-2.07;100.00;101059.41;4956532;28;20138;-63
2022/11/20 08:10:27;;;;;;;19.07;14.33;;;;;;;-2.05;100.00;101050.28;4951883;28;20062;-62
2022/11/20 08:15:38;;;;;;;18.87;14.60;;;;;;;-1.98;100.00;101044.06;4953123;28;20054;-62
2022/11/20 08:18:06;;;;;;;19.67;15.50;;;;;;;-1.94;100.00;101040.16;4955788;28;20073;-63
2022/11/20 08:20:31;;;;;;;19.47;14.37;;;;;;;-1.88;100.00;101039.78;4954290;28;20039;-63
2022/11/20 08:23:01;;;;;;;19.27;14.83;;;;;;;-1.86;100.00;101033.19;4958013;28;20086;-62
2022/11/20 08:25:27;;;;;;;18.53;14.67;;;;;;;-1.82;100.00;101031.03;4956657;28;20223;-62
2022/11/20 08:27:53;;;;;;;17.20;13.67;;;;;;;-1.75;100.00;101029.03;4952647;28;20027;-62
2022/11/20 08:30:18;;;;;;;17.83;14.60;;;;;;;-1.69;100.00;101027.88;4958418;28;20038;-62
2022/11/20 08:32:43;;;;;;;18.87;14.30;;;;;;;-1.64;100.00;101022.31;4955171;28;20035;-62
2022/11/20 08:35:08;;;;;;;20.07;15.23;;;;;;;-1.59;100.00;101023.59;4959166;28;20055;-62
2022/11/20 08:37:34;;;;;;;19.20;14.80;;;;;;;-1.57;100.00;101022.97;4949504;28;20494;-62
2022/11/20 08:39:59;;;;;;;21.30;16.27;;;;;;;-1.52;100.00;101035.16;4952600;28;20026;-62
2022/11/20 08:42:24;;;;;;;19.53;15.27;;;;;;;-1.48;100.00;101040.66;4950191;28;20027;-62
2022/11/20 08:44:50;;;;;;;20.80;15.43;;;;;;;-1.43;100.00;101037.56;4956729;28;20526;-62
2022/11/20 08:47:15;;;;;;;20.10;14.73;;;;;;;-1.43;100.00;101032.50;4948924;28;20051;-62
2022/11/20 08:49:40;;;;;;;19.83;15.27;;;;;;;-1.38;100.00;101043.94;4957956;28;20034;-62
2022/11/20 08:52:05;;;;;;;18.43;14.57;;;;;;;-1.36;100.00;101043.31;4954153;28;20050;-61
2022/11/20 08:54:31;;;;;;;18.93;15.47;;;;;;;-1.30;100.00;101031.88;4954748;28;20035;-62
2022/11/20 08:56:56;;;;;;;22.03;16.83;;;;;;;-1.24;100.00;101024.78;4950088;28;20386;-62
2022/11/20 08:59:21;;;;;;;20.37;16.10;;;;;;;-1.18;100.00;101026.91;4954111;28;20027;-61
2022/11/20 09:01:47;;;;;;;20.43;16.20;;;;;;;-1.10;100.00;101028.44;4948806;28;20031;-63
2022/11/20 09:04:14;;;;;;;19.57;15.90;;;;;;;-1.06;100.00;101019.41;4950010;28;20027;-63
2022/11/20 09:06:39;;;;;;;21.30;16.87;;;;;;;-1.00;100.00;101022.44;4950701;28;20027;-62
2022/11/20 09:09:05;;;;;;;19.47;15.60;;;;;;;-0.97;100.00;101021.03;4951277;28;20035;-62
2022/11/20 09:11:31;;;;;;;20.30;16.17;;;;;;;-0.94;100.00;101022.06;4952362;28;20031;-62
2022/11/20 09:13:56;;;;;;;20.07;16.57;;;;;;;-0.89;100.00;101019.13;4949086;28;20031;-62
2022/11/20 09:16:21;;;;;;;22.20;16.93;;;;;;;-0.84;100.00;101011.84;4950242;28;20031;-63
2022/11/20 09:18:49;;;;;;;22.90;15.97;;;;;;;-0.79;100.00;101015.66;4960329;28;20019;-63
2022/11/20 09:21:15;;;;;;;21.97;17.17;;;;;;;-0.75;100.00;101015.16;4953792;28;20062;-62
2022/11/20 09:23:40;;;;;;;19.37;16.50;;;;;;;-0.69;100.00;101009.66;4953743;28;20072;-63
2022/11/20 09:26:10;;;;;;;19.97;16.87;;;;;;;-0.64;100.00;101004.94;4960304;28;20038;-62
2022/11/20 09:28:35;;;;;;;22.63;17.10;;;;;;;-0.58;100.00;101005.44;4953886;28;20035;-63
2022/11/20 09:31:00;;;;;;;21.37;17.73;;;;;;;-0.53;100.00;101004.16;4958841;28;20175;-63
2022/11/20 09:33:26;;;;;;;21.53;16.83;;;;;;;-0.47;100.00;101005.41;4955570;28;20146;-63
2022/11/20 09:35:52;;;;;;;24.43;18.20;;;;;;;-0.43;100.00;100998.13;4949417;28;20597;-63
2022/11/20 09:38:17;;;;;;;25.67;17.10;;;;;;;-0.38;100.00;100995.94;4951012;28;20035;-63
2022/11/20 09:40:55;;;;;;;25.67;18.97;;;;;;;-0.32;100.00;100991.31;4949786;28;20031;-62
2022/11/20 09:43:37;;;;;;;22.27;16.97;;;;;;;-0.25;100.00;100987.59;4949176;28;20459;-63
2022/11/20 09:46:20;;;;;;;23.80;17.83;;;;;;;-0.17;100.00;100985.66;4949194;28;20038;-62
2022/11/20 09:49:01;;;;;;;26.83;18.20;;;;;;;-0.09;100.00;100979.47;4955718;28;20053;-63
2022/11/20 09:51:39;;;;;;;25.02;18.83;;;;;;;-0.03;100.00;100974.88;4958333;28;20078;-63
2022/11/20 09:54:14;;;;;;;25.63;18.37;;;;;;;0.05;100.00;100974.59;4959623;28;20026;-63
2022/11/20 09:56:44;;;;;;;28.57;19.10;;;;;;;0.11;100.00;100967.38;4963221;28;20546;-63
2022/11/20 09:59:24;;;;;;;29.43;18.33;;;;;;;0.16;100.00;100965.22;4964735;28;20081;-63
2022/11/20 10:01:50;;;;;;;33.10;19.83;;;;;;;0.18;100.00;100969.63;4958663;28;20062;-63
2022/11/20 10:04:17;;;;;;;27.30;19.03;;;;;;;0.22;100.00;100966.56;4960339;28;20039;-63
2022/11/20 10:07:05;;;;;;;29.50;19.30;;;;;;;0.27;100.00;100963.47;4966367;28;20110;-63
2022/11/20 10:09:42;;;;;;;33.37;19.27;;;;;;;0.28;100.00;100947.41;4960391;28;20019;-63
2022/11/20 10:12:10;;;;;;;36.17;21.30;;;;;;;0.31;100.00;100942.53;4953199;28;20027;-62
2022/11/20 10:14:51;;;;;;;38.10;21.43;;;;;;;0.31;100.00;100939.97;4947376;28;20043;-63
2022/11/20 10:17:22;;;;;;;38.03;23.05;;;;;;;0.33;100.00;100944.44;4949051;28;20395;-63
2022/11/20 10:20:14;;;;;;;45.20;25.42;;;;;;;0.34;100.00;100936.00;4955153;28;20118;-63
2022/11/20 10:23:03;;;;;;;41.40;23.03;;;;;;;0.38;100.00;100931.16;4948810;28;20054;-62
2022/11/20 10:26:02;;;;;;;41.37;24.63;;;;;;;0.42;100.00;100917.84;4955373;28;20034;-63
2022/11/20 10:28:39;;;;;;;39.87;22.97;;;;;;;0.45;100.00;100908.75;4966390;28;20102;-63
2022/11/20 10:31:12;;;;;;;42.30;23.20;;;;;;;0.49;100.00;100894.56;4948558;28;20031;-63
2022/11/20 10:33:42;;;;;;;43.67;23.80;;;;;;;0.52;100.00;100888.81;4951656;28;20042;-62
2022/11/20 10:36:07;;;;;;;43.23;24.40;;;;;;;0.57;100.00;100887.50;4956246;28;20065;-63
2022/11/20 10:38:44;;;;;;;45.27;26.10;;;;;;;0.59;100.00;100875.75;4952459;28;20067;-63
2022/11/20 10:41:26;;;;;;;48.47;26.60;;;;;;;0.66;100.00;100872.88;4952330;28;20035;-63
2022/11/20 10:43:59;;;;;;;;;;;;;;;0.74;100.00;100869.97;4952524;28;20030;-62
2022/11/20 10:46:25;;;;;;;48.53;25.13;;;;;;;0.77;100.00;100872.75;4963847;28;19918;-63
2022/11/20 10:48:51;;;;;;;46.60;25.57;;;;;;;0.84;100.00;100867.31;4952404;28;20415;-63
2022/11/20 10:51:28;;;;;;;49.30;26.40;;;;;;;0.89;100.00;100860.88;4952280;28;20035;-63
2022/11/20 10:53:54;;;;;;;48.17;26.03;;;;;;;0.90;100.00;100861.78;4969238;28;20395;-63
2022/11/20 10:56:31;;;;;;;48.47;25.90;;;;;;;0.93;100.00;100852.66;4950832;28;20031;-63
2022/11/20 10:59:30;;;;;;;43.37;24.77;;;;;;;0.97;100.00;100853.78;4964634;28;20476;-63
2022/11/20 11:01:55;;;;;;;41.90;24.93;;;;;;;0.99;100.00;100841.13;4960648;28;20106;-63
2022/11/20 11:04:35;;;;;;;44.83;25.00;;;;;;;0.97;100.00;100838.47;4951823;28;20579;-63
2022/11/20 11:07:19;;;;;;;50.97;26.17;;;;;;;0.99;100.00;100826.66;4954464;28;20030;-63
2022/11/20 11:09:52;;;;;;;47.60;26.30;;;;;;;1.02;100.00;100826.00;4954152;28;20031;-63
2022/11/20 11:12:19;;;;;;;44.17;26.13;;;;;;;1.06;100.00;100828.00;4955820;28;20041;-63